Time;durP1;ratioP1;P1;durP2;ratioP2;P2;SDS_P1;SDS_P2;PMS_P1;PMS_P2;Temp;Humidity;BMP_temperature;BMP_pressure;BME280_temperature;BME280_humidity;BME280_pressure;Samples;Min_cycle;Max_cycle;Signal;HPM_P1;HPM_P2
2022/07/12 07:12:57;;;;;;;0.55;0.55;;;;;;;24.04;52.14;99763.50;5116351;27;20424;-79
2022/07/12 07:15:24;;;;;;;0.85;0.40;;;;;;;24.04;50.32;99755.19;5109598;28;20406;-79
2022/07/12 07:17:51;;;;;;;0.65;0.60;;;;;;;24.61;48.78;99773.31;5108096;28;20138;-79
2022/07/12 07:20:17;;;;;;;1.55;0.50;;;;;;;24.49;48.55;99762.34;5108388;28;20047;-79
2022/07/12 07:22:44;;;;;;;0.60;0.60;;;;;;;24.15;49.51;99778.38;5105165;28;20506;-79
2022/07/12 07:25:11;;;;;;;0.32;0.30;;;;;;;24.72;48.58;99779.81;5108063;28;20048;-79
2022/07/12 07:27:38;;;;;;;0.47;0.35;;;;;;;24.90;47.05;99781.38;5106815;28;20063;-78
2022/07/12 07:32:52;;;;;;;2.28;0.50;;;;;;;24.48;46.79;99770.94;5107199;28;20055;-79
2022/07/12 07:35:19;;;;;;;1.08;0.45;;;;;;;24.79;46.28;99790.75;5108714;28;20048;-78
2022/07/12 07:37:46;;;;;;;0.40;0.40;;;;;;;24.70;45.93;99784.81;5107922;28;20112;-78
2022/07/12 07:40:13;;;;;;;0.65;0.40;;;;;;;25.16;44.77;99762.97;5108804;28;20071;-78
2022/07/12 07:42:39;;;;;;;0.60;0.40;;;;;;;24.70;45.83;99752.28;5107772;28;20050;-79
2022/07/12 07:45:10;;;;;;;0.40;0.25;;;;;;;24.65;46.48;99780.06;5107052;28;20040;-78
2022/07/12 07:47:44;;;;;;;0.30;0.30;;;;;;;25.17;45.16;99781.34;5106984;28;20058;-78
2022/07/12 07:50:10;;;;;;;3.40;0.30;;;;;;;25.46;45.43;99758.75;5105844;28;20079;-79
2022/07/12 07:52:37;;;;;;;0.30;0.22;;;;;;;25.46;43.92;99778.22;5102653;28;20130;-78
2022/07/12 07:55:04;;;;;;;0.40;0.40;;;;;;;25.09;44.47;99771.53;5107648;28;20517;-79
2022/07/12 07:57:30;;;;;;;1.15;0.38;;;;;;;25.56;43.68;99761.59;5105121;28;20061;-79
2022/07/12 07:59:57;;;;;;;0.00;0.00;;;;;;;24.95;43.49;99787.00;5105043;28;20051;-78
2022/07/12 08:02:25;;;;;;;0.25;0.25;;;;;;;24.53;44.36;99771.00;5106819;28;20050;-78
2022/07/12 08:04:52;;;;;;;0.75;0.60;;;;;;;24.24;45.20;99759.28;5107467;28;20043;-78
2022/07/12 08:07:18;;;;;;;0.30;0.30;;;;;;;24.09;46.64;99771.06;5107397;28;20392;-78
2022/07/12 08:09:45;;;;;;;1.05;0.30;;;;;;;23.86;45.48;99756.34;5107303;28;20048;-79
2022/07/12 08:12:11;;;;;;;1.42;0.40;;;;;;;24.10;46.34;99775.53;5106446;28;20366;-79
2022/07/12 08:14:38;;;;;;;0.40;0.40;;;;;;;24.25;45.70;99756.25;5105538;28;20047;-79
2022/07/12 08:17:05;;;;;;;0.43;0.38;;;;;;;24.59;45.45;99753.31;5107300;28;20044;-79
2022/07/12 08:19:32;;;;;;;2.70;0.32;;;;;;;24.63;44.42;99762.81;5106601;28;20403;-78
2022/07/12 08:21:59;;;;;;;1.92;0.20;;;;;;;24.12;45.72;99746.41;5106991;28;20414;-78
2022/07/12 08:24:25;;;;;;;0.30;0.30;;;;;;;24.08;46.44;99755.53;5092124;28;20100;-79
2022/07/12 08:26:52;;;;;;;0.30;0.30;;;;;;;23.80;47.42;99751.81;5093460;28;20055;-79
2022/07/12 08:29:19;;;;;;;0.90;0.30;;;;;;;23.60;47.37;99744.06;5093808;28;20056;-78
2022/07/12 08:31:45;;;;;;;0.30;0.30;;;;;;;23.43;47.54;99756.03;5096638;28;20059;-78
2022/07/12 08:34:12;;;;;;;0.22;0.22;;;;;;;23.37;47.99;99762.59;5110566;28;20054;-79
2022/07/12 08:36:40;;;;;;;2.15;0.28;;;;;;;23.55;48.83;99753.16;5113570;28;20052;-78
2022/07/12 08:39:07;;;;;;;2.67;0.30;;;;;;;24.39;45.71;99762.25;5113598;28;20043;-78
2022/07/12 08:41:33;;;;;;;4.32;0.50;;;;;;;23.96;46.61;99758.44;5113426;28;20229;-79
2022/07/12 08:44:00;;;;;;;0.28;0.10;;;;;;;23.13;45.98;99761.97;5090382;28;20048;-79
2022/07/12 08:46:26;;;;;;;0.20;0.20;;;;;;;23.13;46.20;99775.84;5094856;28;20529;-79
2022/07/12 08:48:53;;;;;;;0.43;0.40;;;;;;;23.07;45.61;99769.31;5113377;28;20043;-79
2022/07/12 08:51:21;;;;;;;0.20;0.20;;;;;;;23.27;46.58;99759.69;5093356;28;20499;-79
2022/07/12 08:54:05;;;;;;;0.32;0.32;;;;;;;23.67;44.60;99769.69;5092535;28;20376;-81
2022/07/12 08:56:33;;;;;;;0.32;0.32;;;;;;;23.68;42.86;99760.25;5093171;28;20048;-79
2022/07/12 08:59:14;;;;;;;0.32;0.32;;;;;;;23.59;44.28;99782.09;5091724;28;20048;-78
2022/07/12 09:01:47;;;;;;;0.50;0.40;;;;;;;22.99;46.53;99761.44;5080188;28;20043;-79
2022/07/12 09:04:15;;;;;;;0.30;0.30;;;;;;;23.01;46.66;99778.66;5107135;28;20354;-79
2022/07/12 09:06:41;;;;;;;0.22;0.22;;;;;;;23.71;46.07;99797.75;5092776;28;20479;-80
2022/07/12 09:09:10;;;;;;;0.80;0.30;;;;;;;23.80;44.53;99769.31;5092976;28;20410;-79
2022/07/12 09:11:38;;;;;;;0.47;0.30;;;;;;;24.21;43.70;99789.28;5092732;28;20044;-78
2022/07/12 09:14:05;;;;;;;0.32;0.32;;;;;;;23.94;45.22;99782.84;5091225;28;20121;-79
2022/07/12 09:16:31;;;;;;;1.40;0.20;;;;;;;23.80;47.42;99774.00;5080798;28;20050;-79
2022/07/12 09:19:16;;;;;;;0.28;0.28;;;;;;;24.01;46.49;99789.03;5093985;28;20159;-79
2022/07/12 09:21:50;;;;;;;0.30;0.30;;;;;;;24.06;45.19;99777.13;5085997;28;20044;-81
2022/07/12 09:24:18;;;;;;;0.35;0.35;;;;;;;24.23;46.29;99777.91;5092017;28;20058;-80
2022/07/12 09:26:46;;;;;;;0.20;0.20;;;;;;;24.41;45.01;99790.63;5089759;28;20138;-80
2022/07/12 09:29:14;;;;;;;1.00;0.30;;;;;;;24.06;44.79;99780.78;5103510;28;20043;-79
2022/07/12 09:36:06;;;;;;;0.20;0.20;;;;;;;24.83;43.73;99784.38;5084541;28;20052;-79
2022/07/12 09:37:13;;;;;;;0.30;0.30;;;;;;;24.99;43.00;99760.34;5094082;28;20513;-79
2022/07/12 09:39:42;;;;;;;0.30;0.30;;;;;;;24.86;43.36;99783.03;5092154;28;20131;-79
2022/07/12 09:42:10;;;;;;;0.20;0.20;;;;;;;24.20;44.54;99781.22;5091781;28;20052;-80
2022/07/12 09:44:37;;;;;;;0.10;0.05;;;;;;;23.77;44.61;99777.31;5091740;28;20052;-79
2022/07/12 09:47:04;;;;;;;0.75;0.30;;;;;;;23.88;45.20;99773.63;5082913;28;20051;-80
2022/07/12 09:49:32;;;;;;;0.40;0.28;;;;;;;24.19;43.49;99783.16;5095172;28;20376;-80
2022/07/12 09:52:00;;;;;;;2.20;0.52;;;;;;;24.35;44.20;99770.25;5091317;28;20048;-79
2022/07/12 09:54:29;;;;;;;1.45;0.68;;;;;;;24.63;42.88;99782.25;5091657;28;20518;-79
2022/07/12 09:56:59;;;;;;;2.88;1.48;;;;;;;24.87;43.08;99773.56;5092120;28;20048;-80
2022/07/12 09:59:30;;;;;;;0.28;0.28;;;;;;;25.17;41.80;99780.47;5091875;28;20059;-80
2022/07/12 10:02:00;;;;;;;0.47;0.30;;;;;;;24.91;41.71;99769.16;5097583;28;20149;-79
2022/07/12 10:04:30;;;;;;;0.20;0.20;;;;;;;24.95;42.79;99772.25;5102972;28;20051;-79
2022/07/12 10:06:57;;;;;;;0.70;0.20;;;;;;;24.03;43.56;99787.69;5112035;28;20138;-79
2022/07/12 10:09:25;;;;;;;3.72;0.40;;;;;;;23.53;44.16;99783.09;5111905;28;20059;-79
2022/07/12 10:11:53;;;;;;;0.68;0.20;;;;;;;23.43;43.50;99778.22;5111815;28;20086;-81
2022/07/12 10:14:22;;;;;;;0.70;0.25;;;;;;;23.45;44.66;99780.75;5108040;28;20048;-79
2022/07/12 10:16:51;;;;;;;0.20;0.20;;;;;;;23.81;45.10;99770.16;5082890;28;20458;-79
2022/07/12 10:19:25;;;;;;;1.13;0.30;;;;;;;24.11;44.13;99777.22;5091184;28;20048;-80
2022/07/12 10:21:54;;;;;;;0.30;0.20;;;;;;;23.57;44.15;99759.28;5091305;28;20044;-79
2022/07/12 10:24:46;;;;;;;0.10;0.10;;;;;;;24.17;43.82;99787.28;5090267;28;20495;-80
2022/07/12 10:27:31;;;;;;;0.30;0.30;;;;;;;23.77;44.41;99771.75;5088131;28;20406;-79
2022/07/12 10:32:53;;;;;;;2.67;0.30;;;;;;;23.88;44.68;99775.53;5148554;27;20446;-79
2022/07/12 10:35:22;;;;;;;0.40;0.22;;;;;;;24.28;43.79;99783.50;5149528;27;20477;-80
2022/07/12 10:38:17;;;;;;;0.17;0.10;;;;;;;24.89;41.94;99774.97;5149737;27;20499;-80
2022/07/12 10:40:47;;;;;;;0.10;0.10;;;;;;;25.03;41.43;99774.53;5130965;27;20127;-80
2022/07/12 10:43:16;;;;;;;0.88;0.22;;;;;;;24.82;41.70;99749.34;5147153;27;20477;-81
2022/07/12 10:45:44;;;;;;;0.30;0.30;;;;;;;25.01;42.11;99763.69;5143738;27;20421;-81
2022/07/12 10:48:20;;;;;;;0.20;0.20;;;;;;;25.40;41.62;99748.69;5148631;27;20294;-80
2022/07/12 10:50:56;;;;;;;0.20;0.20;;;;;;;25.98;40.91;99740.31;5147515;27;20050;-80
2022/07/12 10:53:29;;;;;;;1.80;0.35;;;;;;;25.91;40.57;99748.94;5148365;27;20129;-80
2022/07/12 10:56:14;;;;;;;2.45;0.43;;;;;;;26.32;40.50;99737.13;5149463;27;20416;-79
2022/07/12 10:58:43;;;;;;;0.35;0.35;;;;;;;26.47;40.29;99745.50;5149235;27;20441;-79
2022/07/12 11:01:11;;;;;;;0.63;0.20;;;;;;;26.47;40.45;99751.06;5149199;27;20486;-80
2022/07/12 11:03:41;;;;;;;0.57;0.40;;;;;;;26.59;39.96;99753.59;5140916;27;20051;-80
2022/07/12 11:06:10;;;;;;;0.65;0.30;;;;;;;26.20;39.35;99748.50;5140483;27;20046;-80
2022/07/12 11:08:53;;;;;;;0.30;0.30;;;;;;;25.67;40.27;99734.63;5149112;27;20043;-80
2022/07/12 11:11:21;;;;;;;0.30;0.20;;;;;;;25.71;39.37;99751.63;5149070;27;20122;-80
2022/07/12 11:13:47;;;;;;;0.28;0.28;;;;;;;26.31;39.49;99741.84;5148256;27;20054;-80
2022/07/12 11:16:14;;;;;;;0.80;0.28;;;;;;;26.64;38.77;99761.13;5144938;27;20048;-80
2022/07/12 11:18:42;;;;;;;0.20;0.20;;;;;;;26.79;38.96;99733.28;5147369;27;20061;-80
2022/07/12 11:21:09;;;;;;;1.17;0.20;;;;;;;26.97;38.53;99736.63;5140337;27;20141;-80
2022/07/12 11:23:36;;;;;;;0.15;0.15;;;;;;;26.82;38.42;99740.25;5147965;27;20130;-80
2022/07/12 11:26:05;;;;;;;0.77;0.20;;;;;;;26.89;37.39;99751.13;5148978;27;20086;-80
2022/07/12 11:28:32;;;;;;;0.45;0.30;;;;;;;26.50;38.29;99731.00;5148573;27;20043;-80
2022/07/12 11:31:03;;;;;;;0.20;0.20;;;;;;;27.02;37.80;99750.56;5148476;27;20057;-79
2022/07/12 11:33:32;;;;;;;0.10;0.10;;;;;;;26.87;38.03;99750.59;5141596;27;20070;-80
2022/07/12 11:36:03;;;;;;;0.30;0.30;;;;;;;27.07;38.30;99727.41;5148422;27;20055;-80
2022/07/12 11:38:29;;;;;;;0.70;0.65;;;;;;;27.22;37.55;99744.16;5146159;27;20126;-80
2022/07/12 11:40:57;;;;;;;0.40;0.20;;;;;;;27.57;36.74;99734.03;5148514;27;20050;-80
2022/07/12 11:43:25;;;;;;;0.20;0.20;;;;;;;27.36;36.47;99722.91;5138334;27;20047;-80
2022/07/12 11:45:52;;;;;;;1.55;0.25;;;;;;;27.61;36.83;99746.31;5133276;27;20463;-80
2022/07/12 11:48:19;;;;;;;0.30;0.30;;;;;;;26.40;37.00;99727.38;5134627;27;20386;-82
2022/07/12 11:50:46;;;;;;;0.22;0.20;;;;;;;26.40;38.52;99730.16;5133145;27;20406;-80
2022/07/12 11:53:18;;;;;;;0.15;0.15;;;;;;;26.67;38.58;99743.88;5125232;27;20057;-80
2022/07/12 11:55:45;;;;;;;1.05;0.30;;;;;;;27.03;36.99;99729.94;5134275;27;20055;-80
2022/07/12 11:58:12;;;;;;;0.10;0.10;;;;;;;27.09;36.56;99716.81;5131030;27;20065;-81
2022/07/12 12:00:39;;;;;;;0.25;0.25;;;;;;;27.28;36.76;99729.06;5133831;27;20074;-81
2022/07/12 12:03:06;;;;;;;0.08;0.08;;;;;;;27.27;37.05;99727.38;5133509;27;20065;-80
2022/07/12 12:05:34;;;;;;;0.20;0.20;;;;;;;27.08;36.94;99729.91;5133656;27;20047;-80
2022/07/12 12:08:00;;;;;;;0.25;0.25;;;;;;;27.42;35.89;99717.34;5131635;27;20043;-80
2022/07/12 12:10:29;;;;;;;0.20;0.20;;;;;;;27.51;35.52;99715.63;5133774;27;20074;-80
2022/07/12 12:12:57;;;;;;;0.30;0.20;;;;;;;28.10;35.07;99724.34;5133059;27;20047;-80
2022/07/12 12:15:25;;;;;;;0.20;0.20;;;;;;;27.60;35.24;99699.13;5134104;27;20055;-80
2022/07/12 12:17:56;;;;;;;1.83;0.30;;;;;;;28.08;35.46;99705.91;5134095;27;20051;-80
2022/07/12 12:20:25;;;;;;;0.38;0.38;;;;;;;28.47;34.09;99703.41;5133629;27;20071;-80
2022/07/12 12:22:54;;;;;;;0.95;0.38;;;;;;;28.55;34.20;99694.41;5131330;27;20298;-80
2022/07/12 12:25:21;;;;;;;1.93;0.40;;;;;;;28.39;34.36;99702.06;5128687;27;20478;-80
2022/07/12 12:27:55;;;;;;;0.40;0.40;;;;;;;28.27;34.56;99685.66;5133708;27;20047;-80
2022/07/12 12:30:22;;;;;;;0.20;0.20;;;;;;;28.26;35.15;99700.78;5131625;27;20047;-80
2022/07/12 12:32:54;;;;;;;0.40;0.40;;;;;;;28.08;34.77;99700.31;5132588;27;20051;-81
2022/07/12 12:35:23;;;;;;;0.30;0.30;;;;;;;27.84;34.97;99708.53;5131040;27;20131;-81
2022/07/12 12:37:55;;;;;;;0.30;0.30;;;;;;;27.99;35.06;99693.66;5131503;27;20035;-80
2022/07/12 12:40:24;;;;;;;0.20;0.20;;;;;;;28.38;34.23;99695.66;5133327;27;20051;-80
2022/07/12 12:42:52;;;;;;;0.30;0.30;;;;;;;28.43;34.50;99689.19;5130919;27;20134;-81
2022/07/12 12:45:20;;;;;;;1.30;0.28;;;;;;;28.08;34.63;99693.91;5132823;27;20489;-81
2022/07/12 12:47:54;;;;;;;0.40;0.38;;;;;;;27.77;35.23;99694.00;5132799;27;20103;-81
2022/07/12 12:50:37;;;;;;;0.32;0.30;;;;;;;28.21;35.27;99698.84;5133508;27;20051;-81
2022/07/12 12:53:07;;;;;;;0.60;0.50;;;;;;;28.47;34.49;99687.50;5129813;27;20044;-81
2022/07/12 12:55:34;;;;;;;0.82;0.50;;;;;;;28.20;34.94;99691.59;5132260;27;20077;-80
2022/07/12 12:58:02;;;;;;;0.20;0.20;;;;;;;28.67;33.77;99675.31;5123898;27;20443;-81
2022/07/12 13:00:29;;;;;;;1.10;0.43;;;;;;;28.98;33.62;99686.25;5124323;27;20054;-80
2022/07/12 13:02:58;;;;;;;0.25;0.25;;;;;;;28.64;33.27;99698.28;5124338;27;20181;-81
2022/07/12 13:05:25;;;;;;;0.32;0.32;;;;;;;28.60;33.90;99686.00;5125563;27;20047;-80
2022/07/12 13:07:52;;;;;;;0.30;0.30;;;;;;;28.93;32.93;99673.09;5132957;27;20085;-80
2022/07/12 13:10:18;;;;;;;0.35;0.35;;;;;;;28.95;33.44;99682.06;5133175;27;20051;-80
2022/07/12 13:12:45;;;;;;;0.25;0.20;;;;;;;28.85;34.47;99687.75;5132625;27;20047;-82
2022/07/12 13:15:13;;;;;;;0.20;0.20;;;;;;;28.61;33.95;99676.50;5132833;27;20054;-80
2022/07/12 13:17:39;;;;;;;0.30;0.30;;;;;;;28.37;34.25;99663.22;5123687;27;20051;-81
2022/07/12 13:20:07;;;;;;;0.77;0.30;;;;;;;28.89;33.37;99686.03;5129408;27;20050;-80
2022/07/12 13:22:33;;;;;;;1.42;0.43;;;;;;;28.96;32.58;99663.31;5131554;27;20199;-80
2022/07/12 13:25:00;;;;;;;0.75;0.32;;;;;;;28.83;33.25;99686.38;5132787;27;20126;-80
2022/07/12 13:27:27;;;;;;;2.35;0.40;;;;;;;29.18;31.79;99681.53;5132896;27;20130;-80
2022/07/12 13:29:53;;;;;;;1.58;0.35;;;;;;;29.06;32.43;99681.97;5132440;27;20478;-81
2022/07/12 13:32:21;;;;;;;0.32;0.32;;;;;;;29.20;32.09;99676.50;5131904;27;20047;-81
2022/07/12 13:34:48;;;;;;;0.70;0.20;;;;;;;29.20;32.30;99690.50;5121735;27;20048;-81
2022/07/12 13:37:14;;;;;;;0.25;0.20;;;;;;;29.02;32.58;99672.47;5130699;27;20057;-81
2022/07/12 13:42:25;;;;;;;0.47;0.25;;;;;;;29.28;31.24;99682.31;5129238;27;20046;-81
2022/07/12 13:44:52;;;;;;;0.35;0.30;;;;;;;29.30;31.12;99682.84;5128384;27;20384;-81
2022/07/12 13:47:22;;;;;;;0.20;0.15;;;;;;;29.71;31.40;99683.50;5128410;27;20610;-80
2022/07/12 13:49:48;;;;;;;;;;;;;;;29.20;32.48;99694.13;5132761;27;20047;-81
2022/07/12 13:52:15;;;;;;;0.30;0.30;;;;;;;29.42;32.71;99692.81;5131513;27;20377;-80
2022/07/12 13:57:25;;;;;;;0.30;0.30;;;;;;;28.23;32.28;99673.41;5116133;27;20414;-81
2022/07/12 13:59:52;;;;;;;1.65;0.50;;;;;;;28.64;33.22;99687.09;5133768;27;20043;-80
2022/07/12 14:02:20;;;;;;;0.40;0.40;;;;;;;28.83;30.90;99684.44;5133672;27;20044;-81
2022/07/12 14:04:47;;;;;;;0.75;0.60;;;;;;;29.24;30.86;99686.84;5139076;27;20130;-80
2022/07/12 14:07:13;;;;;;;0.50;0.50;;;;;;;29.94;30.14;99679.81;5136531;27;20047;-80
2022/07/12 14:09:40;;;;;;;0.38;0.30;;;;;;;29.66;30.01;99679.63;5134000;27;20397;-81
2022/07/12 14:12:08;;;;;;;10.35;0.70;;;;;;;29.30;31.38;99671.66;5130850;27;20486;-78
2022/07/12 14:17:20;;;;;;;0.30;0.30;;;;;;;29.14;30.48;99665.34;5131742;27;20153;-79
2022/07/12 14:19:47;;;;;;;2.15;0.30;;;;;;;29.11;31.24;99677.13;5132011;27;20043;-79
2022/07/12 14:22:13;;;;;;;0.93;0.30;;;;;;;29.51;30.18;99667.75;5130605;27;20055;-79
2022/07/12 14:24:40;;;;;;;0.20;0.20;;;;;;;29.58;29.84;99662.63;5124917;27;20120;-79
2022/07/12 14:27:08;;;;;;;5.45;0.82;;;;;;;29.58;30.22;99654.22;5128101;27;20393;-79
2022/07/12 14:29:34;;;;;;;1.90;0.40;;;;;;;29.59;29.39;99675.50;5126736;28;20062;-79
2022/07/12 14:32:01;;;;;;;0.40;0.38;;;;;;;29.56;30.30;99665.72;5130855;28;20057;-80
2022/07/12 14:34:29;;;;;;;0.32;0.30;;;;;;;29.51;29.45;99650.94;5121909;28;20043;-79
2022/07/12 14:36:55;;;;;;;1.02;0.40;;;;;;;30.00;29.91;99649.75;5131380;27;20130;-78
2022/07/12 14:39:22;;;;;;;0.22;0.22;;;;;;;29.92;28.00;99659.69;5130860;28;20531;-80
2022/07/12 14:42:08;;;;;;;1.65;0.45;;;;;;;30.15;28.37;99668.31;5123265;28;20083;-82
2022/07/12 14:44:35;;;;;;;2.28;0.40;;;;;;;29.73;29.58;99654.03;5129306;27;20055;-78
2022/07/12 14:47:01;;;;;;;1.73;0.38;;;;;;;30.07;28.66;99663.41;5126822;28;20043;-78
2022/07/12 14:49:29;;;;;;;0.47;0.30;;;;;;;30.23;28.30;99664.84;5123845;28;20075;-78
2022/07/12 14:51:57;;;;;;;5.10;0.47;;;;;;;29.66;29.15;99664.78;5129024;28;20047;-78
2022/07/12 14:54:24;;;;;;;0.35;0.30;;;;;;;29.42;29.04;99648.81;5129302;28;20053;-78
2022/07/12 14:56:51;;;;;;;0.40;0.35;;;;;;;29.38;29.96;99661.75;5131952;27;20581;-78
2022/07/12 14:59:17;;;;;;;0.38;0.38;;;;;;;29.44;29.65;99665.34;5131230;28;20035;-78
2022/07/12 15:01:44;;;;;;;0.77;0.40;;;;;;;29.29;30.71;99657.94;5129204;28;20062;-78
2022/07/12 15:04:11;;;;;;;0.68;0.40;;;;;;;29.39;30.30;99635.44;5129164;28;20085;-77
2022/07/12 15:06:39;;;;;;;1.42;0.35;;;;;;;29.65;30.64;99652.72;5128034;28;20082;-77
2022/07/12 15:09:06;;;;;;;1.25;0.40;;;;;;;29.64;29.61;99639.88;5122856;28;20058;-77
2022/07/12 15:11:32;;;;;;;2.25;0.20;;;;;;;29.77;29.78;99652.28;5121654;27;20071;-77
2022/07/12 15:13:59;;;;;;;1.50;0.30;;;;;;;29.60;28.21;99640.78;5121768;28;20043;-77
2022/07/12 15:16:26;;;;;;;0.60;0.40;;;;;;;29.64;29.30;99625.88;5130691;28;20045;-77
2022/07/12 15:18:54;;;;;;;0.38;0.28;;;;;;;29.61;27.73;99639.63;5131638;27;20482;-79
2022/07/12 15:21:20;;;;;;;0.47;0.38;;;;;;;29.62;28.44;99646.91;5133443;27;20054;-77
2022/07/12 15:23:48;;;;;;;0.40;0.35;;;;;;;29.50;28.40;99641.72;5132347;27;20070;-77
2022/07/12 15:26:15;;;;;;;1.23;0.47;;;;;;;29.40;28.08;99644.66;5136230;27;20138;-78
2022/07/12 15:28:52;;;;;;;0.30;0.30;;;;;;;29.43;28.21;99628.09;5133997;27;20056;-77
2022/07/12 15:31:18;;;;;;;0.38;0.38;;;;;;;29.45;28.98;99630.59;5129626;27;20046;-78
2022/07/12 15:33:45;;;;;;;0.47;0.40;;;;;;;29.54;28.24;99642.81;5131769;27;20409;-78
2022/07/12 15:36:12;;;;;;;0.57;0.30;;;;;;;29.71;28.42;99617.06;5127147;27;20062;-77
2022/07/12 15:38:38;;;;;;;0.30;0.30;;;;;;;29.72;27.82;99635.56;5125464;27;20134;-78
2022/07/12 15:41:06;;;;;;;0.40;0.40;;;;;;;29.38;28.90;99635.72;5130240;27;20414;-78
2022/07/12 15:43:33;;;;;;;0.25;0.25;;;;;;;29.63;28.65;99629.78;5130482;27;20049;-77
2022/07/12 15:46:00;;;;;;;2.00;0.32;;;;;;;29.68;28.00;99609.28;5126183;27;20047;-78
2022/07/12 15:48:26;;;;;;;0.20;0.20;;;;;;;30.09;27.95;99621.88;5126914;27;20039;-78
2022/07/12 15:50:53;;;;;;;0.50;0.30;;;;;;;29.99;28.36;99629.31;5127152;27;20078;-78
2022/07/12 15:53:27;;;;;;;0.40;0.40;;;;;;;29.90;28.09;99624.69;5130021;27;20408;-78
2022/07/12 15:55:56;;;;;;;0.28;0.28;;;;;;;30.35;28.37;99631.56;5131156;27;20331;-78
2022/07/12 15:58:26;;;;;;;0.30;0.30;;;;;;;30.12;27.10;99608.09;5127536;27;20058;-78
2022/07/12 16:00:52;;;;;;;0.30;0.30;;;;;;;30.41;27.76;99632.34;5127297;27;20047;-78
2022/07/12 16:03:19;;;;;;;0.70;0.40;;;;;;;30.05;27.53;99618.00;5130647;27;20055;-78
2022/07/12 16:05:46;;;;;;;1.40;0.40;;;;;;;30.16;27.47;99620.38;5130024;27;20480;-79
2022/07/12 16:08:12;;;;;;;0.40;0.40;;;;;;;30.05;28.06;99609.59;5130130;27;20081;-78
2022/07/12 16:10:39;;;;;;;1.55;0.35;;;;;;;29.72;28.29;99626.31;5130290;27;20055;-78
2022/07/12 16:13:06;;;;;;;1.30;0.43;;;;;;;29.74;28.29;99615.66;5120640;27;20104;-78
2022/07/12 16:15:34;;;;;;;0.50;0.50;;;;;;;29.59;28.99;99619.50;5123503;27;20067;-78
2022/07/12 16:18:01;;;;;;;0.25;0.20;;;;;;;29.51;28.77;99606.13;5123043;27;20047;-78
2022/07/12 16:20:28;;;;;;;1.17;0.55;;;;;;;29.68;29.29;99617.69;5130691;27;20047;-78
2022/07/12 16:22:54;;;;;;;0.32;0.32;;;;;;;29.67;29.12;99618.81;5114763;27;20078;-78
2022/07/12 16:25:21;;;;;;;0.55;0.40;;;;;;;29.59;29.34;99603.50;5129057;27;20051;-77
2022/07/12 16:27:48;;;;;;;1.50;0.45;;;;;;;29.74;28.28;99608.06;5130454;27;20071;-78
2022/07/12 16:30:16;;;;;;;1.35;0.50;;;;;;;29.58;28.45;99598.22;5121470;27;20100;-78
2022/07/12 16:32:44;;;;;;;0.40;0.40;;;;;;;29.58;28.98;99610.25;5123633;27;20256;-78
2022/07/12 16:35:10;;;;;;;0.35;0.35;;;;;;;29.30;28.78;99598.03;5128487;27;20500;-78
2022/07/12 16:37:37;;;;;;;0.30;0.30;;;;;;;29.65;28.68;99619.09;5126250;27;20043;-78
2022/07/12 16:40:04;;;;;;;1.60;0.38;;;;;;;29.40;28.81;99594.25;5121726;27;20062;-78
2022/07/12 16:42:31;;;;;;;0.30;0.30;;;;;;;29.90;28.99;99621.88;5125081;27;20504;-78
2022/07/12 16:44:57;;;;;;;1.65;0.20;;;;;;;29.88;28.13;99608.16;5130916;27;20053;-78
2022/07/12 16:47:24;;;;;;;0.55;0.30;;;;;;;29.68;29.53;99609.28;5118851;27;20126;-78
2022/07/12 16:49:52;;;;;;;4.22;0.30;;;;;;;29.17;29.90;99612.72;5127536;27;20043;-77
2022/07/12 16:52:18;;;;;;;3.95;0.50;;;;;;;29.13;29.84;99604.91;5121241;27;20142;-78
2022/07/12 16:54:45;;;;;;;1.10;0.43;;;;;;;29.02;29.41;99605.31;5129430;27;20397;-78
2022/07/12 16:57:12;;;;;;;0.40;0.40;;;;;;;29.01;29.50;99607.28;5129838;27;20062;-77
2022/07/12 16:59:38;;;;;;;0.38;0.38;;;;;;;28.80;30.24;99581.50;5122745;27;20130;-77
2022/07/12 17:02:05;;;;;;;4.03;0.43;;;;;;;28.81;31.44;99599.09;5126770;27;20065;-77
2022/07/12 17:04:31;;;;;;;0.63;0.30;;;;;;;29.02;30.23;99591.31;5129048;27;20039;-77
2022/07/12 17:06:59;;;;;;;3.55;0.32;;;;;;;29.18;28.82;99608.75;5130074;27;20047;-78
2022/07/12 17:09:28;;;;;;;0.77;0.60;;;;;;;29.35;29.87;99611.13;5127624;27;20466;-78
2022/07/12 17:11:54;;;;;;;0.38;0.32;;;;;;;29.47;28.87;99603.94;5129577;27;20046;-77
2022/07/12 17:14:21;;;;;;;2.72;0.77;;;;;;;29.36;29.80;99604.38;5120379;27;20053;-77
2022/07/12 17:16:48;;;;;;;1.85;0.30;;;;;;;29.11;29.54;99598.75;5129361;27;20146;-77
2022/07/12 17:19:16;;;;;;;0.38;0.38;;;;;;;29.18;30.17;99590.00;5125902;27;20054;-77
2022/07/12 17:21:42;;;;;;;1.65;0.50;;;;;;;28.93;30.43;99597.56;5127289;27;20051;-77
2022/07/12 17:24:10;;;;;;;0.40;0.40;;;;;;;29.06;30.05;99615.63;5125703;27;20051;-78
2022/07/12 17:26:39;;;;;;;0.20;0.20;;;;;;;28.75;30.73;99613.13;5128684;27;20445;-77
2022/07/12 17:29:06;;;;;;;0.55;0.50;;;;;;;28.66;30.04;99597.31;5125088;27;20497;-78
2022/07/12 17:31:33;;;;;;;0.82;0.52;;;;;;;28.72;30.72;99604.50;5121402;27;20043;-77
2022/07/12 17:34:00;;;;;;;0.88;0.32;;;;;;;28.75;31.20;99613.13;5117555;27;20053;-77
2022/07/12 17:36:27;;;;;;;1.48;0.32;;;;;;;28.53;31.04;99604.38;5116725;27;20445;-77
2022/07/12 17:38:54;;;;;;;0.70;0.35;;;;;;;28.33;31.81;99605.38;5125686;27;20139;-78
2022/07/12 17:41:21;;;;;;;1.10;0.45;;;;;;;28.13;31.72;99609.19;5125808;27;20433;-77
2022/07/12 17:43:48;;;;;;;1.08;0.30;;;;;;;28.04;31.72;99597.78;5120773;27;20047;-77
2022/07/12 17:46:15;;;;;;;0.95;0.20;;;;;;;27.93;31.42;99596.16;5128717;27;20051;-77
2022/07/12 17:48:41;;;;;;;1.08;0.50;;;;;;;27.92;31.25;99605.69;5128938;27;20047;-77
2022/07/12 17:51:08;;;;;;;1.45;0.22;;;;;;;27.82;31.96;99587.00;5126830;27;20481;-77
2022/07/12 17:53:35;;;;;;;1.38;0.30;;;;;;;27.88;32.07;99594.22;5127946;27;20044;-77
2022/07/12 17:56:01;;;;;;;2.25;0.50;;;;;;;27.79;31.71;99595.97;5125051;27;20055;-77
2022/07/12 17:58:39;;;;;;;0.38;0.38;;;;;;;27.98;31.49;99610.13;5120158;27;20047;-77
2022/07/12 18:01:07;;;;;;;1.55;0.40;;;;;;;27.74;34.15;99602.41;5123324;27;20410;-77
2022/07/12 18:03:34;;;;;;;0.63;0.28;;;;;;;27.71;34.50;99605.78;5122684;27;20043;-77
2022/07/12 18:06:01;;;;;;;2.72;0.40;;;;;;;27.44;34.08;99600.63;5126457;27;20062;-78
2022/07/12 18:08:27;;;;;;;2.33;0.47;;;;;;;27.40;34.10;99607.91;5119472;27;20133;-77
2022/07/12 18:10:54;;;;;;;0.57;0.57;;;;;;;27.33;34.64;99606.25;5126992;27;20498;-78
2022/07/12 18:16:06;;;;;;;1.52;0.60;;;;;;;27.19;35.79;99597.63;5127199;27;20417;-77
2022/07/12 18:18:33;;;;;;;0.40;0.40;;;;;;;27.09;36.09;99608.00;5126308;27;20427;-77
2022/07/12 18:20:59;;;;;;;0.40;0.40;;;;;;;26.95;36.39;99600.22;5126927;27;20134;-77
2022/07/12 18:23:26;;;;;;;0.47;0.40;;;;;;;26.85;36.00;99589.09;5122626;27;20050;-77
2022/07/12 18:25:53;;;;;;;4.30;0.52;;;;;;;26.97;37.96;99609.13;5131129;27;20133;-77
2022/07/12 18:28:20;;;;;;;1.55;0.63;;;;;;;26.77;39.41;99615.59;5125161;27;20044;-77
2022/07/12 18:30:48;;;;;;;1.42;0.60;;;;;;;26.62;40.40;99612.81;5128359;27;20451;-77
2022/07/12 18:33:16;;;;;;;2.55;1.17;;;;;;;26.63;41.12;99620.03;5124535;28;20054;-77
2022/07/12 18:35:43;;;;;;;0.65;0.65;;;;;;;26.32;41.41;99595.81;5127510;28;20051;-77
2022/07/12 18:38:11;;;;;;;4.75;1.20;;;;;;;26.28;41.88;99597.47;5118075;28;20043;-77
2022/07/12 18:40:37;;;;;;;2.17;0.82;;;;;;;26.06;43.16;99596.91;5125527;28;20138;-77
2022/07/12 18:43:04;;;;;;;1.85;0.57;;;;;;;25.95;44.02;99602.47;5126534;28;20402;-77
2022/07/12 18:45:31;;;;;;;2.92;0.40;;;;;;;25.84;43.84;99611.06;5128931;27;20050;-77
2022/07/12 18:47:58;;;;;;;1.42;0.50;;;;;;;25.72;44.72;99606.56;5128700;28;20130;-77
2022/07/12 18:50:26;;;;;;;0.40;0.40;;;;;;;25.51;45.80;99618.75;5124845;28;20047;-77
2022/07/12 18:52:52;;;;;;;1.33;0.35;;;;;;;25.01;46.95;99605.16;5126736;27;20111;-77
2022/07/12 18:55:19;;;;;;;3.13;0.50;;;;;;;24.77;48.48;99601.94;5132072;27;20402;-77
2022/07/12 18:57:46;;;;;;;1.65;0.60;;;;;;;24.66;49.16;99611.31;5122102;27;20043;-77
2022/07/12 19:00:13;;;;;;;1.85;0.57;;;;;;;24.36;48.46;99594.13;5131436;27;20138;-77
2022/07/12 19:02:40;;;;;;;1.33;0.60;;;;;;;24.12;49.40;99582.53;5131802;27;20058;-77
2022/07/12 19:05:07;;;;;;;1.35;0.35;;;;;;;24.05;50.43;99606.06;5119962;27;20048;-77
2022/07/12 19:07:35;;;;;;;1.17;0.50;;;;;;;23.99;50.67;99606.00;5128561;27;20051;-77
2022/07/12 19:10:01;;;;;;;1.17;0.40;;;;;;;23.84;50.62;99591.97;5123174;27;20134;-77